sensor_id;sensor_type;location;lat;lon;timestamp;temperature;humidity
16976;DHT22;8604;48.148;-1.786;2024-03-02T00:01:16;4.60;99.90
16976;DHT22;8604;48.148;-1.786;2024-03-02T00:03:45;4.60;99.90
16976;DHT22;8604;48.148;-1.786;2024-03-02T00:06:14;4.60;99.90
16976;DHT22;8604;48.148;-1.786;2024-03-02T00:08:42;4.60;99.90
16976;DHT22;8604;48.148;-1.786;2024-03-02T00:11:11;4.60;99.90
16976;DHT22;8604;48.148;-1.786;2024-03-02T00:13:43;4.60;99.90
16976;DHT22;8604;48.148;-1.786;2024-03-02T00:16:11;4.60;99.90
16976;DHT22;8604;48.148;-1.786;2024-03-02T00:18:40;4.60;99.90
16976;DHT22;8604;48.148;-1.786;2024-03-02T00:21:10;4.70;99.90
16976;DHT22;8604;48.148;-1.786;2024-03-02T00:23:40;4.70;99.90
16976;DHT22;8604;48.148;-1.786;2024-03-02T00:26:11;4.70;99.90
16976;DHT22;8604;48.148;-1.786;2024-03-02T00:28:40;4.80;99.90
16976;DHT22;8604;48.148;-1.786;2024-03-02T00:31:12;4.80;99.90
16976;DHT22;8604;48.148;-1.786;2024-03-02T00:33:42;4.80;99.90
16976;DHT22;8604;48.148;-1.786;2024-03-02T00:36:12;4.90;99.90
16976;DHT22;8604;48.148;-1.786;2024-03-02T00:38:44;4.90;99.90
16976;DHT22;8604;48.148;-1.786;2024-03-02T00:41:17;4.90;99.90
16976;DHT22;8604;48.148;-1.786;2024-03-02T00:44:02;4.90;99.90
16976;DHT22;8604;48.148;-1.786;2024-03-02T00:46:35;4.90;99.90
16976;DHT22;8604;48.148;-1.786;2024-03-02T00:49:05;4.90;99.90
16976;DHT22;8604;48.148;-1.786;2024-03-02T00:51:34;4.90;99.90
16976;DHT22;8604;48.148;-1.786;2024-03-02T00:54:04;4.90;99.90
16976;DHT22;8604;48.148;-1.786;2024-03-02T00:56:33;4.90;99.90
16976;DHT22;8604;48.148;-1.786;2024-03-02T00:59:02;5.00;99.90
16976;DHT22;8604;48.148;-1.786;2024-03-02T01:01:31;5.00;99.90
16976;DHT22;8604;48.148;-1.786;2024-03-02T01:04:01;5.00;99.90
16976;DHT22;8604;48.148;-1.786;2024-03-02T01:06:30;5.00;99.90
16976;DHT22;8604;48.148;-1.786;2024-03-02T01:08:59;5.00;99.90
16976;DHT22;8604;48.148;-1.786;2024-03-02T01:11:28;5.10;99.90
16976;DHT22;8604;48.148;-1.786;2024-03-02T01:13:57;5.10;99.90
16976;DHT22;8604;48.148;-1.786;2024-03-02T01:16:25;5.10;99.90
16976;DHT22;8604;48.148;-1.786;2024-03-02T01:18:54;5.10;99.90
16976;DHT22;8604;48.148;-1.786;2024-03-02T01:21:24;5.10;99.90
16976;DHT22;8604;48.148;-1.786;2024-03-02T01:23:52;5.20;99.90
16976;DHT22;8604;48.148;-1.786;2024-03-02T01:26:21;5.20;99.90
16976;DHT22;8604;48.148;-1.786;2024-03-02T01:28:49;5.30;99.90
16976;DHT22;8604;48.148;-1.786;2024-03-02T01:31:18;5.40;99.90
16976;DHT22;8604;48.148;-1.786;2024-03-02T01:33:46;5.40;99.90
16976;DHT22;8604;48.148;-1.786;2024-03-02T01:36:15;5.40;99.90
16976;DHT22;8604;48.148;-1.786;2024-03-02T01:38:45;5.40;99.90
16976;DHT22;8604;48.148;-1.786;2024-03-02T01:41:13;5.40;99.90
16976;DHT22;8604;48.148;-1.786;2024-03-02T01:43:41;5.40;99.90
16976;DHT22;8604;48.148;-1.786;2024-03-02T01:46:11;5.40;99.90
16976;DHT22;8604;48.148;-1.786;2024-03-02T01:48:39;5.40;99.90
16976;DHT22;8604;48.148;-1.786;2024-03-02T01:51:08;5.40;99.90
16976;DHT22;8604;48.148;-1.786;2024-03-02T01:53:37;5.40;99.90
16976;DHT22;8604;48.148;-1.786;2024-03-02T01:56:08;5.40;99.90
16976;DHT22;8604;48.148;-1.786;2024-03-02T01:58:36;5.40;99.90
16976;DHT22;8604;48.148;-1.786;2024-03-02T02:01:05;5.40;99.90
16976;DHT22;8604;48.148;-1.786;2024-03-02T02:03:33;5.40;99.90
16976;DHT22;8604;48.148;-1.786;2024-03-02T02:06:02;5.40;99.90
16976;DHT22;8604;48.148;-1.786;2024-03-02T02:08:31;5.40;99.90
16976;DHT22;8604;48.148;-1.786;2024-03-02T02:11:00;5.50;99.90
16976;DHT22;8604;48.148;-1.786;2024-03-02T02:13:30;5.50;99.90
16976;DHT22;8604;48.148;-1.786;2024-03-02T02:16:05;5.50;99.90
16976;DHT22;8604;48.148;-1.786;2024-03-02T02:18:33;5.50;99.90
16976;DHT22;8604;48.148;-1.786;2024-03-02T02:21:02;5.50;99.90
16976;DHT22;8604;48.148;-1.786;2024-03-02T02:23:33;5.50;99.90
16976;DHT22;8604;48.148;-1.786;2024-03-02T02:26:02;5.60;99.90
16976;DHT22;8604;48.148;-1.786;2024-03-02T02:28:31;5.60;99.90
16976;DHT22;8604;48.148;-1.786;2024-03-02T02:30:59;5.60;99.90
16976;DHT22;8604;48.148;-1.786;2024-03-02T02:33:28;5.60;99.90
16976;DHT22;8604;48.148;-1.786;2024-03-02T02:35:57;5.60;99.90
16976;DHT22;8604;48.148;-1.786;2024-03-02T02:38:25;5.70;99.90
16976;DHT22;8604;48.148;-1.786;2024-03-02T02:40:55;5.70;99.90
16976;DHT22;8604;48.148;-1.786;2024-03-02T02:43:23;5.60;99.90
16976;DHT22;8604;48.148;-1.786;2024-03-02T02:45:52;5.60;99.90
16976;DHT22;8604;48.148;-1.786;2024-03-02T02:48:20;5.60;99.90
16976;DHT22;8604;48.148;-1.786;2024-03-02T02:50:49;5.60;99.90
16976;DHT22;8604;48.148;-1.786;2024-03-02T02:53:18;5.60;99.90
16976;DHT22;8604;48.148;-1.786;2024-03-02T02:55:46;5.60;99.90
16976;DHT22;8604;48.148;-1.786;2024-03-02T02:58:16;5.60;99.90
16976;DHT22;8604;48.148;-1.786;2024-03-02T03:00:45;5.60;99.90
16976;DHT22;8604;48.148;-1.786;2024-03-02T03:03:13;5.50;99.90
16976;DHT22;8604;48.148;-1.786;2024-03-02T03:05:42;5.50;99.90
16976;DHT22;8604;48.148;-1.786;2024-03-02T03:08:10;5.50;99.90
16976;DHT22;8604;48.148;-1.786;2024-03-02T03:10:39;5.50;99.90
16976;DHT22;8604;48.148;-1.786;2024-03-02T03:13:07;5.50;99.90
16976;DHT22;8604;48.148;-1.786;2024-03-02T03:15:37;5.50;99.90
16976;DHT22;8604;48.148;-1.786;2024-03-02T03:18:06;5.60;99.90
16976;DHT22;8604;48.148;-1.786;2024-03-02T03:20:37;5.60;99.90
16976;DHT22;8604;48.148;-1.786;2024-03-02T03:23:06;5.60;99.90
16976;DHT22;8604;48.148;-1.786;2024-03-02T03:25:35;5.60;99.90
16976;DHT22;8604;48.148;-1.786;2024-03-02T03:28:04;5.60;99.90
16976;DHT22;8604;48.148;-1.786;2024-03-02T03:30:33;5.60;99.90
16976;DHT22;8604;48.148;-1.786;2024-03-02T03:33:03;5.70;99.90
16976;DHT22;8604;48.148;-1.786;2024-03-02T03:35:33;5.70;99.90
16976;DHT22;8604;48.148;-1.786;2024-03-02T03:38:01;5.70;99.90
16976;DHT22;8604;48.148;-1.786;2024-03-02T03:40:30;5.70;99.90
16976;DHT22;8604;48.148;-1.786;2024-03-02T03:42:59;5.70;99.90
16976;DHT22;8604;48.148;-1.786;2024-03-02T03:45:27;5.70;99.90
16976;DHT22;8604;48.148;-1.786;2024-03-02T03:48:12;5.70;99.90
16976;DHT22;8604;48.148;-1.786;2024-03-02T03:50:41;5.80;99.90
16976;DHT22;8604;48.148;-1.786;2024-03-02T03:53:10;5.80;99.90
16976;DHT22;8604;48.148;-1.786;2024-03-02T03:55:38;5.70;99.90
16976;DHT22;8604;48.148;-1.786;2024-03-02T03:58:06;5.80;99.90
16976;DHT22;8604;48.148;-1.786;2024-03-02T04:00:35;5.70;99.90
16976;DHT22;8604;48.148;-1.786;2024-03-02T04:03:04;5.70;99.90
16976;DHT22;8604;48.148;-1.786;2024-03-02T04:05:34;5.70;99.90
16976;DHT22;8604;48.148;-1.786;2024-03-02T04:08:03;5.70;99.90
16976;DHT22;8604;48.148;-1.786;2024-03-02T04:10:31;5.70;99.90
16976;DHT22;8604;48.148;-1.786;2024-03-02T04:13:01;5.70;99.90
16976;DHT22;8604;48.148;-1.786;2024-03-02T04:15:29;5.70;99.90
16976;DHT22;8604;48.148;-1.786;2024-03-02T04:17:58;5.70;99.90
16976;DHT22;8604;48.148;-1.786;2024-03-02T04:20:26;5.70;99.90
16976;DHT22;8604;48.148;-1.786;2024-03-02T04:22:56;5.70;99.90
16976;DHT22;8604;48.148;-1.786;2024-03-02T04:25:25;5.60;99.90
16976;DHT22;8604;48.148;-1.786;2024-03-02T04:27:53;5.60;99.90
16976;DHT22;8604;48.148;-1.786;2024-03-02T04:30:22;5.60;99.90
16976;DHT22;8604;48.148;-1.786;2024-03-02T04:32:50;5.60;99.90
16976;DHT22;8604;48.148;-1.786;2024-03-02T04:35:19;5.60;99.90
16976;DHT22;8604;48.148;-1.786;2024-03-02T04:37:48;5.60;99.90
16976;DHT22;8604;48.148;-1.786;2024-03-02T04:40:18;5.60;99.90
16976;DHT22;8604;48.148;-1.786;2024-03-02T04:42:46;5.50;99.90
16976;DHT22;8604;48.148;-1.786;2024-03-02T04:45:15;5.50;99.90
16976;DHT22;8604;48.148;-1.786;2024-03-02T04:47:43;5.50;99.90
16976;DHT22;8604;48.148;-1.786;2024-03-02T04:50:16;5.40;99.90
16976;DHT22;8604;48.148;-1.786;2024-03-02T04:52:44;5.40;99.90
16976;DHT22;8604;48.148;-1.786;2024-03-02T04:55:13;5.40;99.90
16976;DHT22;8604;48.148;-1.786;2024-03-02T04:58:19;5.40;99.90
16976;DHT22;8604;48.148;-1.786;2024-03-02T05:00:47;5.30;99.90
16976;DHT22;8604;48.148;-1.786;2024-03-02T05:03:16;5.30;99.90
16976;DHT22;8604;48.148;-1.786;2024-03-02T05:05:44;5.30;99.90
16976;DHT22;8604;48.148;-1.786;2024-03-02T05:08:13;5.30;99.90
16976;DHT22;8604;48.148;-1.786;2024-03-02T05:10:44;5.30;99.90
16976;DHT22;8604;48.148;-1.786;2024-03-02T05:13:13;5.30;99.90
16976;DHT22;8604;48.148;-1.786;2024-03-02T05:15:41;5.30;99.90
16976;DHT22;8604;48.148;-1.786;2024-03-02T05:18:10;5.30;99.90
16976;DHT22;8604;48.148;-1.786;2024-03-02T05:20:39;5.30;99.90
16976;DHT22;8604;48.148;-1.786;2024-03-02T05:23:07;5.30;99.90
16976;DHT22;8604;48.148;-1.786;2024-03-02T05:25:36;5.30;99.90
16976;DHT22;8604;48.148;-1.786;2024-03-02T05:28:05;5.30;99.90
16976;DHT22;8604;48.148;-1.786;2024-03-02T05:30:33;5.30;99.90
16976;DHT22;8604;48.148;-1.786;2024-03-02T05:33:04;5.30;99.90
16976;DHT22;8604;48.148;-1.786;2024-03-02T05:35:33;5.30;99.90
16976;DHT22;8604;48.148;-1.786;2024-03-02T05:38:01;5.30;99.90
16976;DHT22;8604;48.148;-1.786;2024-03-02T05:40:30;5.20;99.90
16976;DHT22;8604;48.148;-1.786;2024-03-02T05:42:58;5.20;99.90
16976;DHT22;8604;48.148;-1.786;2024-03-02T05:45:27;5.20;99.90
16976;DHT22;8604;48.148;-1.786;2024-03-02T05:47:55;5.20;99.90
16976;DHT22;8604;48.148;-1.786;2024-03-02T05:50:25;5.20;99.90
16976;DHT22;8604;48.148;-1.786;2024-03-02T05:52:54;5.20;99.90
16976;DHT22;8604;48.148;-1.786;2024-03-02T05:55:23;5.20;99.90
16976;DHT22;8604;48.148;-1.786;2024-03-02T05:57:51;5.20;99.90
16976;DHT22;8604;48.148;-1.786;2024-03-02T06:00:38;5.20;99.90
16976;DHT22;8604;48.148;-1.786;2024-03-02T06:03:07;5.20;99.90
16976;DHT22;8604;48.148;-1.786;2024-03-02T06:05:38;5.20;99.90
16976;DHT22;8604;48.148;-1.786;2024-03-02T06:08:07;5.30;99.90
16976;DHT22;8604;48.148;-1.786;2024-03-02T06:10:36;5.30;99.90
16976;DHT22;8604;48.148;-1.786;2024-03-02T06:13:04;5.30;99.90
16976;DHT22;8604;48.148;-1.786;2024-03-02T06:15:33;5.30;99.90
16976;DHT22;8604;48.148;-1.786;2024-03-02T06:18:04;5.30;99.90
16976;DHT22;8604;48.148;-1.786;2024-03-02T06:20:33;5.30;99.90
16976;DHT22;8604;48.148;-1.786;2024-03-02T06:23:05;5.40;99.90
16976;DHT22;8604;48.148;-1.786;2024-03-02T06:25:33;5.30;99.90
16976;DHT22;8604;48.148;-1.786;2024-03-02T06:28:02;5.30;99.90
16976;DHT22;8604;48.148;-1.786;2024-03-02T06:30:31;5.30;99.90
16976;DHT22;8604;48.148;-1.786;2024-03-02T06:33:00;5.30;99.90
16976;DHT22;8604;48.148;-1.786;2024-03-02T06:35:28;5.40;99.90
16976;DHT22;8604;48.148;-1.786;2024-03-02T06:37:57;5.30;99.90
16976;DHT22;8604;48.148;-1.786;2024-03-02T06:40:27;5.30;99.90
16976;DHT22;8604;48.148;-1.786;2024-03-02T06:42:56;5.40;99.90
16976;DHT22;8604;48.148;-1.786;2024-03-02T06:45:26;5.40;99.90
16976;DHT22;8604;48.148;-1.786;2024-03-02T06:48:32;5.40;99.90
16976;DHT22;8604;48.148;-1.786;2024-03-02T06:51:28;5.40;99.90
16976;DHT22;8604;48.148;-1.786;2024-03-02T06:54:20;5.40;99.90
16976;DHT22;8604;48.148;-1.786;2024-03-02T06:57:12;5.40;99.90
16976;DHT22;8604;48.148;-1.786;2024-03-02T06:59:48;5.40;99.90
16976;DHT22;8604;48.148;-1.786;2024-03-02T07:02:28;5.40;99.90
16976;DHT22;8604;48.148;-1.786;2024-03-02T07:05:28;5.40;99.90
16976;DHT22;8604;48.148;-1.786;2024-03-02T07:08:17;5.40;99.90
16976;DHT22;8604;48.148;-1.786;2024-03-02T07:11:34;5.40;99.90
16976;DHT22;8604;48.148;-1.786;2024-03-02T07:14:25;5.40;99.90
16976;DHT22;8604;48.148;-1.786;2024-03-02T07:17:18;5.30;99.90
16976;DHT22;8604;48.148;-1.786;2024-03-02T07:20:12;5.30;99.90
16976;DHT22;8604;48.148;-1.786;2024-03-02T07:22:57;5.30;99.90
16976;DHT22;8604;48.148;-1.786;2024-03-02T07:25:42;5.30;99.90
16976;DHT22;8604;48.148;-1.786;2024-03-02T07:28:29;5.30;99.90
16976;DHT22;8604;48.148;-1.786;2024-03-02T07:31:10;5.30;99.90
16976;DHT22;8604;48.148;-1.786;2024-03-02T07:33:55;5.30;99.90
16976;DHT22;8604;48.148;-1.786;2024-03-02T07:39:37;5.30;99.90
16976;DHT22;8604;48.148;-1.786;2024-03-02T07:42:37;5.30;99.90
16976;DHT22;8604;48.148;-1.786;2024-03-02T07:45:36;5.40;99.90
16976;DHT22;8604;48.148;-1.786;2024-03-02T07:48:28;5.40;99.90
16976;DHT22;8604;48.148;-1.786;2024-03-02T07:51:00;5.50;99.90
16976;DHT22;8604;48.148;-1.786;2024-03-02T07:53:30;5.60;99.90
16976;DHT22;8604;48.148;-1.786;2024-03-02T07:55:59;5.60;99.90
16976;DHT22;8604;48.148;-1.786;2024-03-02T07:58:30;5.70;99.90
16976;DHT22;8604;48.148;-1.786;2024-03-02T08:01:01;5.70;99.90
16976;DHT22;8604;48.148;-1.786;2024-03-02T08:03:31;5.70;99.90
16976;DHT22;8604;48.148;-1.786;2024-03-02T08:06:04;5.70;99.90
16976;DHT22;8604;48.148;-1.786;2024-03-02T08:08:33;5.70;99.90
16976;DHT22;8604;48.148;-1.786;2024-03-02T08:11:01;5.70;99.90
16976;DHT22;8604;48.148;-1.786;2024-03-02T08:13:30;5.70;99.90
16976;DHT22;8604;48.148;-1.786;2024-03-02T08:15:57;5.70;99.90
16976;DHT22;8604;48.148;-1.786;2024-03-02T08:18:26;5.70;99.90
16976;DHT22;8604;48.148;-1.786;2024-03-02T08:20:56;5.80;99.90
16976;DHT22;8604;48.148;-1.786;2024-03-02T08:23:28;5.80;99.90
16976;DHT22;8604;48.148;-1.786;2024-03-02T08:25:58;6.00;99.90
16976;DHT22;8604;48.148;-1.786;2024-03-02T08:28:26;6.90;99.90
16976;DHT22;8604;48.148;-1.786;2024-03-02T08:30:56;7.60;99.90
16976;DHT22;8604;48.148;-1.786;2024-03-02T08:33:25;8.40;99.90
16976;DHT22;8604;48.148;-1.786;2024-03-02T08:35:53;9.20;99.90
16976;DHT22;8604;48.148;-1.786;2024-03-02T08:38:23;9.70;99.90
16976;DHT22;8604;48.148;-1.786;2024-03-02T08:40:52;10.00;99.90
16976;DHT22;8604;48.148;-1.786;2024-03-02T08:43:23;10.20;99.90
16976;DHT22;8604;48.148;-1.786;2024-03-02T08:45:52;10.30;99.90
16976;DHT22;8604;48.148;-1.786;2024-03-02T08:48:26;10.20;99.90
16976;DHT22;8604;48.148;-1.786;2024-03-02T08:50:55;10.40;99.90
16976;DHT22;8604;48.148;-1.786;2024-03-02T08:53:25;10.70;99.90
16976;DHT22;8604;48.148;-1.786;2024-03-02T08:55:54;10.90;99.90
16976;DHT22;8604;48.148;-1.786;2024-03-02T08:58:25;10.90;99.90
16976;DHT22;8604;48.148;-1.786;2024-03-02T09:00:54;11.00;99.90
16976;DHT22;8604;48.148;-1.786;2024-03-02T09:03:23;11.00;99.90
16976;DHT22;8604;48.148;-1.786;2024-03-02T09:05:51;11.10;99.90
16976;DHT22;8604;48.148;-1.786;2024-03-02T09:08:20;11.40;99.90
16976;DHT22;8604;48.148;-1.786;2024-03-02T09:10:50;12.00;99.90
16976;DHT22;8604;48.148;-1.786;2024-03-02T09:13:19;12.50;99.90
16976;DHT22;8604;48.148;-1.786;2024-03-02T09:15:48;12.70;99.90
16976;DHT22;8604;48.148;-1.786;2024-03-02T09:18:17;13.10;99.90
16976;DHT22;8604;48.148;-1.786;2024-03-02T09:20:46;13.30;99.90
16976;DHT22;8604;48.148;-1.786;2024-03-02T09:23:17;13.80;99.90
16976;DHT22;8604;48.148;-1.786;2024-03-02T09:25:50;14.30;99.90
16976;DHT22;8604;48.148;-1.786;2024-03-02T09:28:19;14.70;99.90
16976;DHT22;8604;48.148;-1.786;2024-03-02T09:30:48;15.20;99.90
16976;DHT22;8604;48.148;-1.786;2024-03-02T09:33:17;15.80;99.90
16976;DHT22;8604;48.148;-1.786;2024-03-02T09:35:46;16.00;99.90
16976;DHT22;8604;48.148;-1.786;2024-03-02T09:38:16;16.30;99.90
16976;DHT22;8604;48.148;-1.786;2024-03-02T09:40:45;16.70;99.90
16976;DHT22;8604;48.148;-1.786;2024-03-02T09:43:17;16.70;99.90
16976;DHT22;8604;48.148;-1.786;2024-03-02T09:48:37;17.20;99.90
16976;DHT22;8604;48.148;-1.786;2024-03-02T09:51:07;17.10;99.90
16976;DHT22;8604;48.148;-1.786;2024-03-02T09:53:40;17.20;99.90
16976;DHT22;8604;48.148;-1.786;2024-03-02T10:12:05;18.70;99.90
16976;DHT22;8604;48.148;-1.786;2024-03-02T10:14:34;18.60;99.90
16976;DHT22;8604;48.148;-1.786;2024-03-02T10:17:05;18.30;99.90
16976;DHT22;8604;48.148;-1.786;2024-03-02T10:19:37;18.60;99.90
16976;DHT22;8604;48.148;-1.786;2024-03-02T10:22:08;19.00;99.90
16976;DHT22;8604;48.148;-1.786;2024-03-02T10:24:38;18.90;99.90
16976;DHT22;8604;48.148;-1.786;2024-03-02T10:27:09;19.10;99.90
16976;DHT22;8604;48.148;-1.786;2024-03-02T10:29:39;18.70;99.90
16976;DHT22;8604;48.148;-1.786;2024-03-02T10:32:11;18.10;99.90
16976;DHT22;8604;48.148;-1.786;2024-03-02T10:34:41;17.70;99.90
16976;DHT22;8604;48.148;-1.786;2024-03-02T10:37:11;17.30;99.90
16976;DHT22;8604;48.148;-1.786;2024-03-02T10:39:40;17.20;99.90
16976;DHT22;8604;48.148;-1.786;2024-03-02T10:42:11;17.50;99.90
16976;DHT22;8604;48.148;-1.786;2024-03-02T10:44:41;18.20;99.90
16976;DHT22;8604;48.148;-1.786;2024-03-02T10:47:12;18.40;99.90
16976;DHT22;8604;48.148;-1.786;2024-03-02T10:49:42;18.80;99.90
16976;DHT22;8604;48.148;-1.786;2024-03-02T10:52:12;19.10;99.90
16976;DHT22;8604;48.148;-1.786;2024-03-02T10:54:41;19.10;99.90
16976;DHT22;8604;48.148;-1.786;2024-03-02T10:57:14;19.00;99.90
16976;DHT22;8604;48.148;-1.786;2024-03-02T10:59:51;18.40;99.90
16976;DHT22;8604;48.148;-1.786;2024-03-02T11:02:21;17.70;99.90
16976;DHT22;8604;48.148;-1.786;2024-03-02T11:04:54;17.10;99.90
16976;DHT22;8604;48.148;-1.786;2024-03-02T11:07:24;16.40;99.90
16976;DHT22;8604;48.148;-1.786;2024-03-02T11:09:57;15.70;99.90
16976;DHT22;8604;48.148;-1.786;2024-03-02T11:12:29;15.30;99.90
16976;DHT22;8604;48.148;-1.786;2024-03-02T11:14:58;14.90;99.90
16976;DHT22;8604;48.148;-1.786;2024-03-02T11:17:30;14.60;99.90
16976;DHT22;8604;48.148;-1.786;2024-03-02T11:19:59;14.40;99.90
16976;DHT22;8604;48.148;-1.786;2024-03-02T11:22:28;14.20;99.90
16976;DHT22;8604;48.148;-1.786;2024-03-02T11:24:58;14.10;99.90
16976;DHT22;8604;48.148;-1.786;2024-03-02T11:28:05;14.20;99.90
16976;DHT22;8604;48.148;-1.786;2024-03-02T11:30:49;14.50;99.90
16976;DHT22;8604;48.148;-1.786;2024-03-02T11:33:25;15.10;99.90
16976;DHT22;8604;48.148;-1.786;2024-03-02T11:35:56;15.60;99.90
16976;DHT22;8604;48.148;-1.786;2024-03-02T11:38:30;16.00;99.90
16976;DHT22;8604;48.148;-1.786;2024-03-02T11:43:47;16.60;99.90
16976;DHT22;8604;48.148;-1.786;2024-03-02T11:56:07;15.80;99.90
16976;DHT22;8604;48.148;-1.786;2024-03-02T11:58:39;15.60;99.90
16976;DHT22;8604;48.148;-1.786;2024-03-02T12:01:29;15.50;99.90
16976;DHT22;8604;48.148;-1.786;2024-03-02T12:04:01;15.70;99.90
16976;DHT22;8604;48.148;-1.786;2024-03-02T12:10:00;15.80;99.90
16976;DHT22;8604;48.148;-1.786;2024-03-02T12:12:36;16.00;99.90
16976;DHT22;8604;48.148;-1.786;2024-03-02T12:15:06;16.30;99.90
16976;DHT22;8604;48.148;-1.786;2024-03-02T12:17:36;16.50;99.90
16976;DHT22;8604;48.148;-1.786;2024-03-02T12:20:12;16.60;99.90
16976;DHT22;8604;48.148;-1.786;2024-03-02T12:22:41;16.80;99.90
16976;DHT22;8604;48.148;-1.786;2024-03-02T12:25:10;17.00;99.90
16976;DHT22;8604;48.148;-1.786;2024-03-02T12:27:39;17.10;99.90
16976;DHT22;8604;48.148;-1.786;2024-03-02T12:30:09;17.20;99.90
16976;DHT22;8604;48.148;-1.786;2024-03-02T12:32:41;17.00;99.90
16976;DHT22;8604;48.148;-1.786;2024-03-02T12:35:10;16.60;99.90
16976;DHT22;8604;48.148;-1.786;2024-03-02T12:37:45;16.10;99.90
16976;DHT22;8604;48.148;-1.786;2024-03-02T12:40:14;15.80;99.90
16976;DHT22;8604;48.148;-1.786;2024-03-02T12:42:45;15.60;99.90
16976;DHT22;8604;48.148;-1.786;2024-03-02T12:45:15;15.10;99.90
16976;DHT22;8604;48.148;-1.786;2024-03-02T12:47:53;15.10;99.90
16976;DHT22;8604;48.148;-1.786;2024-03-02T12:50:22;15.40;99.90
16976;DHT22;8604;48.148;-1.786;2024-03-02T12:52:54;15.50;99.90
16976;DHT22;8604;48.148;-1.786;2024-03-02T12:55:23;15.60;99.90
16976;DHT22;8604;48.148;-1.786;2024-03-02T12:57:52;15.60;99.90
16976;DHT22;8604;48.148;-1.786;2024-03-02T13:00:22;15.30;99.90
16976;DHT22;8604;48.148;-1.786;2024-03-02T13:02:51;15.00;99.90
16976;DHT22;8604;48.148;-1.786;2024-03-02T13:05:21;14.70;99.90
16976;DHT22;8604;48.148;-1.786;2024-03-02T13:07:50;14.60;99.90
16976;DHT22;8604;48.148;-1.786;2024-03-02T13:10:19;14.50;99.90
16976;DHT22;8604;48.148;-1.786;2024-03-02T13:12:47;14.40;99.90
16976;DHT22;8604;48.148;-1.786;2024-03-02T13:15:16;14.10;99.90
16976;DHT22;8604;48.148;-1.786;2024-03-02T13:17:45;14.30;99.90
16976;DHT22;8604;48.148;-1.786;2024-03-02T13:20:14;14.50;99.90
16976;DHT22;8604;48.148;-1.786;2024-03-02T13:22:46;14.40;99.90
16976;DHT22;8604;48.148;-1.786;2024-03-02T13:25:15;14.40;99.90
16976;DHT22;8604;48.148;-1.786;2024-03-02T13:27:44;14.30;99.90
16976;DHT22;8604;48.148;-1.786;2024-03-02T13:30:12;14.30;99.90
16976;DHT22;8604;48.148;-1.786;2024-03-02T13:32:41;14.20;99.90
16976;DHT22;8604;48.148;-1.786;2024-03-02T13:35:14;13.90;99.90
16976;DHT22;8604;48.148;-1.786;2024-03-02T13:37:45;13.70;99.90
16976;DHT22;8604;48.148;-1.786;2024-03-02T13:40:14;13.40;99.90
16976;DHT22;8604;48.148;-1.786;2024-03-02T13:42:47;13.30;99.90
16976;DHT22;8604;48.148;-1.786;2024-03-02T13:45:16;13.40;99.90
16976;DHT22;8604;48.148;-1.786;2024-03-02T13:47:45;13.30;99.90
16976;DHT22;8604;48.148;-1.786;2024-03-02T13:50:14;13.20;99.90
16976;DHT22;8604;48.148;-1.786;2024-03-02T13:52:43;13.20;99.90
16976;DHT22;8604;48.148;-1.786;2024-03-02T13:55:13;13.10;99.90
16976;DHT22;8604;48.148;-1.786;2024-03-02T13:57:42;13.10;99.90
16976;DHT22;8604;48.148;-1.786;2024-03-02T14:00:11;13.30;99.90
16976;DHT22;8604;48.148;-1.786;2024-03-02T14:02:40;13.30;99.90
16976;DHT22;8604;48.148;-1.786;2024-03-02T14:05:09;13.00;99.90
16976;DHT22;8604;48.148;-1.786;2024-03-02T14:07:39;12.90;99.90
16976;DHT22;8604;48.148;-1.786;2024-03-02T14:10:08;12.80;99.90
16976;DHT22;8604;48.148;-1.786;2024-03-02T14:12:38;12.90;99.90
16976;DHT22;8604;48.148;-1.786;2024-03-02T14:15:09;12.80;99.90
16976;DHT22;8604;48.148;-1.786;2024-03-02T14:20:40;12.90;99.90
16976;DHT22;8604;48.148;-1.786;2024-03-02T14:23:10;12.90;99.90
16976;DHT22;8604;48.148;-1.786;2024-03-02T14:25:39;12.80;99.90
16976;DHT22;8604;48.148;-1.786;2024-03-02T14:28:09;12.80;99.90
16976;DHT22;8604;48.148;-1.786;2024-03-02T14:30:57;12.70;99.90
16976;DHT22;8604;48.148;-1.786;2024-03-02T14:33:28;12.80;99.90
16976;DHT22;8604;48.148;-1.786;2024-03-02T14:35:56;12.70;99.90
16976;DHT22;8604;48.148;-1.786;2024-03-02T14:38:25;12.80;99.90
16976;DHT22;8604;48.148;-1.786;2024-03-02T14:40:53;12.80;99.90
16976;DHT22;8604;48.148;-1.786;2024-03-02T14:43:23;12.70;99.90
16976;DHT22;8604;48.148;-1.786;2024-03-02T14:45:52;12.50;99.90
16976;DHT22;8604;48.148;-1.786;2024-03-02T14:48:21;12.30;99.90
16976;DHT22;8604;48.148;-1.786;2024-03-02T14:50:49;12.10;99.90
16976;DHT22;8604;48.148;-1.786;2024-03-02T14:53:18;12.00;99.90
16976;DHT22;8604;48.148;-1.786;2024-03-02T14:55:46;11.90;99.90
16976;DHT22;8604;48.148;-1.786;2024-03-02T14:58:15;11.80;99.90
16976;DHT22;8604;48.148;-1.786;2024-03-02T15:00:45;11.80;99.90
16976;DHT22;8604;48.148;-1.786;2024-03-02T15:03:14;11.80;99.90
16976;DHT22;8604;48.148;-1.786;2024-03-02T15:05:42;11.80;99.90
16976;DHT22;8604;48.148;-1.786;2024-03-02T15:08:14;11.70;99.90
16976;DHT22;8604;48.148;-1.786;2024-03-02T15:10:43;11.50;99.90
16976;DHT22;8604;48.148;-1.786;2024-03-02T15:13:12;11.40;99.90
16976;DHT22;8604;48.148;-1.786;2024-03-02T15:15:41;11.30;99.90
16976;DHT22;8604;48.148;-1.786;2024-03-02T15:18:11;11.30;99.90
16976;DHT22;8604;48.148;-1.786;2024-03-02T15:20:43;11.30;99.90
16976;DHT22;8604;48.148;-1.786;2024-03-02T15:23:12;11.30;99.90
16976;DHT22;8604;48.148;-1.786;2024-03-02T15:25:41;11.40;99.90
16976;DHT22;8604;48.148;-1.786;2024-03-02T15:28:09;11.40;99.90
16976;DHT22;8604;48.148;-1.786;2024-03-02T15:30:38;11.40;99.90
16976;DHT22;8604;48.148;-1.786;2024-03-02T15:33:07;11.40;99.90
16976;DHT22;8604;48.148;-1.786;2024-03-02T15:35:40;11.40;99.90
16976;DHT22;8604;48.148;-1.786;2024-03-02T15:38:12;11.40;99.90
16976;DHT22;8604;48.148;-1.786;2024-03-02T15:40:58;11.20;99.90
16976;DHT22;8604;48.148;-1.786;2024-03-02T15:43:27;11.10;99.90
16976;DHT22;8604;48.148;-1.786;2024-03-02T15:45:57;11.10;99.90
16976;DHT22;8604;48.148;-1.786;2024-03-02T15:48:26;11.10;99.90
16976;DHT22;8604;48.148;-1.786;2024-03-02T15:50:56;11.00;99.90
16976;DHT22;8604;48.148;-1.786;2024-03-02T15:53:27;11.00;99.90
16976;DHT22;8604;48.148;-1.786;2024-03-02T15:55:56;11.00;99.90
16976;DHT22;8604;48.148;-1.786;2024-03-02T15:58:24;11.00;99.90
16976;DHT22;8604;48.148;-1.786;2024-03-02T16:00:53;11.00;99.90
16976;DHT22;8604;48.148;-1.786;2024-03-02T16:03:21;10.90;99.90
16976;DHT22;8604;48.148;-1.786;2024-03-02T16:05:50;10.90;99.90
16976;DHT22;8604;48.148;-1.786;2024-03-02T16:08:20;10.90;99.90
16976;DHT22;8604;48.148;-1.786;2024-03-02T16:10:48;10.80;99.90
16976;DHT22;8604;48.148;-1.786;2024-03-02T16:13:18;10.80;99.90
16976;DHT22;8604;48.148;-1.786;2024-03-02T16:15:46;10.80;99.90
16976;DHT22;8604;48.148;-1.786;2024-03-02T16:18:15;10.80;99.90
16976;DHT22;8604;48.148;-1.786;2024-03-02T16:20:43;10.80;99.90
16976;DHT22;8604;48.148;-1.786;2024-03-02T16:23:12;10.80;99.90
16976;DHT22;8604;48.148;-1.786;2024-03-02T16:25:42;10.80;99.90
16976;DHT22;8604;48.148;-1.786;2024-03-02T16:28:10;10.80;99.90
16976;DHT22;8604;48.148;-1.786;2024-03-02T16:30:39;10.70;99.90
16976;DHT22;8604;48.148;-1.786;2024-03-02T16:33:07;10.70;99.90
16976;DHT22;8604;48.148;-1.786;2024-03-02T16:35:36;10.60;99.90
16976;DHT22;8604;48.148;-1.786;2024-03-02T16:38:04;10.60;99.90
16976;DHT22;8604;48.148;-1.786;2024-03-02T16:40:33;10.70;99.90
16976;DHT22;8604;48.148;-1.786;2024-03-02T16:43:03;10.70;99.90
16976;DHT22;8604;48.148;-1.786;2024-03-02T16:45:31;10.60;99.90